Newkirk, NM (88431)

4:17 PM MDT on August 30, 2014 (GMT -0600)
Conchas Dam | Change Station
CLOSE
Current Station
Personal Weather Station
Location: Conchas, NM
Elevation: 4268 ft
Nearby Weather Stations

Elev 4268 ft 35.36 °N, 104.22 °W | Updated 11 minutes ago

Partly Cloudy
Partly Cloudy
95.1 °F
Feels Like 91 °F
N
21.0
Wind Variable Wind from South
Gusts 21.0 mph

Today
High -- | Low -- °F
--% Chance of Precip.
Yesterday
High -- | Low -- °F
Precip. -- in
6:28 AM 7:26 PM
Waxing Crescent, 25% visible
Pressure 29.72 in
Visibility 10.0 miles
Clouds Few 10000 ft
Heat Index 91 °F
Dew Point 47 °F
Humidity 19%
Rainfall 0.00 in
Snow Depth Not available.
UV 5 out of 12
Pollen 8.70 out of 12
Air Quality Not available.
Flu Activity Not available.
METAR KTCC 302153Z AUTO 22013KT 10SM FEW100 36/04 A2994 RMK AO2 SLP064 T03560044

More Conditions Fewer Conditions

Pressure 29.72 in
Visibility 10.0 miles
Clouds Few 10000 ft
Heat Index 91 °F
Dew Point 47 °F
Humidity 19%
Rainfall 0.00 in
Snow Depth Not available.
UV 5 out of 12
Pollen 8.70 out of 12
Air Quality Not available.
Flu Activity Not available.
METAR KTCC 302153Z AUTO 22013KT 10SM FEW100 36/04 A2994 RMK AO2 SLP064 T03560044

More Conditions Fewer Conditions

10-Day Weather Forecast

Almanac

Astronomy

Aug. 30, 2014 Rise Set
Actual Time 6:28 AM MDT 7:26 PM MDT
Civil Twilight 6:02 AM MDT 7:52 PM MDT
Nautical Twilight 5:31 AM MDT 8:23 PM MDT
Astronomical Twilight 4:59 AM MDT 8:54 PM MDT
Moon 11:05 AM MDT 10:14 PM MDT
Length of Visible Light 13h 50m
Length of Day
12h 58m
Tomorrow will be 2m 6s shorter.
Waxing Crescent, 25% of the Moon is Illuminated
Today
Waxing Crescent
Sep 2
First Quarter
Sep 8
Full
Sep 15
Last Quarter
Sep 24
New

Today's Extremes

State Highs State Lows

Community

WunderPhotos

Upload Photos

1,748,657 photos uploaded!

WunderBlogs® & News

Nearby

Snow Depth

Station Depth Elevation
Santa Fe 0 in 11445 ft
Red River Pass #2 0 in 9850 ft
Quemazon 1 in 9500 ft
North Costilla 0 in 10600 ft
Sierra Blanca 0 in 10280 ft

Earthquake Activity

City Distance Mag. Time & Date
No recent earthquake activity has been reported nearby.
Minimum magnitude displayed is 2.5.

Coastal Water Temperatures

Place Temperature
No Stations Reporting

Nearby Weather Stations